Romoe Maersk — OXLC2 — position and weather

sailwx.info

Track history (hours):
 
Tides and Currents Weather Stations Pressure Air Temp Water Temp Dewpoint Dewpoint Depression Visibility Wind Speed Wind Dir Waves Ship Positions

Romoe Maersk

Last reported at 2014-Dec-18 18:33 UTC. Time now 2014-Dec-18 19:32 UTC.
Position N 44°05' E 039°04'.

Length 171 m; draft 6.5 m.

Type: Ship. MMSI: 220209000.

Date/timePositionNaut miles runAvg speedWind from/ knotsBaromVisibWave heightAir tempDewpointWater temp
2014-Dec-18 18:33N 44°05' E 039°04'0 0.0
2014-Dec-18 17:12N 44°05' E 039°04'0 0.0
2014-Dec-18 16:33N 44°05' E 039°04'0 0.0
2014-Dec-18 15:33N 44°05' E 039°04'0 0.0
2014-Dec-18 14:33N 44°05' E 039°04'0 0.0
2014-Dec-18 13:33N 44°05' E 039°04'0 0.0
2014-Dec-18 12:33N 44°05' E 039°04'0 0.0
2014-Dec-18 11:27N 44°05' E 039°04'0 0.0
2014-Dec-18 10:33N 44°05' E 039°04'0 0.0
2014-Dec-18 09:33N 44°05' E 039°04'0 0.0
2014-Dec-18 08:33N 44°05' E 039°04'0 0.1
2014-Dec-18 07:34N 44°05' E 039°04'2 2.2
2014-Dec-18 06:31N 44°03' E 039°05'0 0.0
2014-Dec-18 05:28N 44°03' E 039°05'0 0.0
2014-Dec-18 04:31N 44°03' E 039°05'0 0.0
2014-Dec-18 03:25N 44°03' E 039°05'0 0.1
2014-Dec-18 02:34N 44°03' E 039°04'6 5.5
2014-Dec-18 01:33N 44°04' E 038°57'9 9.0
2014-Dec-18 00:32N 44°07' E 038°45'9 9.1
2014-Dec-17 23:33N 44°11' E 038°34'26 8.4
2014-Dec-17 20:27N 44°21' E 038°00'7 7.8
2014-Dec-17 19:33N 44°23' E 037°51'8 7.9
2014-Dec-17 18:31N 44°26' E 037°40'8 7.7
2014-Dec-17 17:32N 44°30' E 037°31'50 9.1
2014-Dec-17 12:04N 44°52' E 036°29'712.6
2014-Dec-17 11:33N 44°59' E 036°29'10 1.1
2014-Dec-17 02:30N 45°08' E 036°33'0 0.0
2014-Dec-17 01:24N 45°08' E 036°33'21 1.5
2014-Dec-16 11:33N 44°47' E 036°33'1312.5
2014-Dec-16 10:29N 44°34' E 036°31'1411.2
2014-Dec-16 09:15N 44°20' E 036°27'1212.1
2014-Dec-16 08:17N 44°16' E 036°13'912.2
2014-Dec-16 07:33N 44°12' E 036°01'1210.2
2014-Dec-16 06:20N 44°06' E 035°46'63 8.7
2014-Dec-15 23:06N 43°39' E 034°27'256 9.3
2014-Dec-14 19:33N 41°32' E 029°25'10 9.0
2014-Dec-14 18:25N 41°24' E 029°17'8 9.2
2014-Dec-14 17:33N 41°17' E 029°11'  
2014-Dec-10 20:12N 37°49' E 025°48'6 9.1
2014-Dec-10 19:30N 37°43' E 025°48'10 9.1
2014-Dec-10 18:26N 37°33' E 025°49'8 9.4
2014-Dec-10 17:34N 37°26' E 025°53'9 9.1
2014-Dec-10 16:34N 37°18' E 025°60'9 8.9
2014-Dec-10 15:33N 37°11' E 026°06'9 9.4
2014-Dec-10 14:33N 37°02' E 026°10'9 9.4
2014-Dec-10 13:34N 36°54' E 026°17'9 8.8
2014-Dec-10 12:34N 36°47' E 026°24'10 9.6
2014-Dec-10 11:33N 36°40' E 026°31'1413.5
2014-Dec-10 10:29N 36°29' E 026°43'1613.1
2014-Dec-10 09:15N 36°17' E 026°57'  
Track history (hours):
 
Tides and Currents Weather Stations Pressure Air Temp Water Temp Dewpoint Dewpoint Depression Visibility Wind Speed Wind Dir Waves Ship Positions

Romoe Maersk

Last reported at 2014-Dec-18 18:33 UTC. Time now 2014-Dec-18 19:32 UTC.
Position N 44°05' E 039°04'.

Length 171 m; draft 6.5 m.

Type: Ship. MMSI: 220209000.

Date/timePositionNaut miles runAvg speedWind from/ knotsBaromVisibWave heightAir tempDewpointWater temp
2014-Dec-18 18:33N 44°05' E 039°04'0 0.0
2014-Dec-18 17:12N 44°05' E 039°04'0 0.0
2014-Dec-18 16:33N 44°05' E 039°04'0 0.0
2014-Dec-18 15:33N 44°05' E 039°04'0 0.0
2014-Dec-18 14:33N 44°05' E 039°04'0 0.0
2014-Dec-18 13:33N 44°05' E 039°04'0 0.0
2014-Dec-18 12:33N 44°05' E 039°04'0 0.0
2014-Dec-18 11:27N 44°05' E 039°04'0 0.0
2014-Dec-18 10:33N 44°05' E 039°04'0 0.0
2014-Dec-18 09:33N 44°05' E 039°04'0 0.0
2014-Dec-18 08:33N 44°05' E 039°04'0 0.1
2014-Dec-18 07:34N 44°05' E 039°04'2 2.2
2014-Dec-18 06:31N 44°03' E 039°05'0 0.0
2014-Dec-18 05:28N 44°03' E 039°05'0 0.0
2014-Dec-18 04:31N 44°03' E 039°05'0 0.0
2014-Dec-18 03:25N 44°03' E 039°05'0 0.1
2014-Dec-18 02:34N 44°03' E 039°04'6 5.5
2014-Dec-18 01:33N 44°04' E 038°57'9 9.0
2014-Dec-18 00:32N 44°07' E 038°45'9 9.1
2014-Dec-17 23:33N 44°11' E 038°34'26 8.4
2014-Dec-17 20:27N 44°21' E 038°00'7 7.8
2014-Dec-17 19:33N 44°23' E 037°51'8 7.9
2014-Dec-17 18:31N 44°26' E 037°40'8 7.7
2014-Dec-17 17:32N 44°30' E 037°31'50 9.1
2014-Dec-17 12:04N 44°52' E 036°29'712.6
2014-Dec-17 11:33N 44°59' E 036°29'10 1.1
2014-Dec-17 02:30N 45°08' E 036°33'0 0.0
2014-Dec-17 01:24N 45°08' E 036°33'21 1.5
2014-Dec-16 11:33N 44°47' E 036°33'1312.5
2014-Dec-16 10:29N 44°34' E 036°31'1411.2
2014-Dec-16 09:15N 44°20' E 036°27'1212.1
2014-Dec-16 08:17N 44°16' E 036°13'912.2
2014-Dec-16 07:33N 44°12' E 036°01'1210.2
2014-Dec-16 06:20N 44°06' E 035°46'63 8.7
2014-Dec-15 23:06N 43°39' E 034°27'256 9.3
2014-Dec-14 19:33N 41°32' E 029°25'10 9.0
2014-Dec-14 18:25N 41°24' E 029°17'8 9.2
2014-Dec-14 17:33N 41°17' E 029°11'  
2014-Dec-10 20:12N 37°49' E 025°48'6 9.1
2014-Dec-10 19:30N 37°43' E 025°48'10 9.1
2014-Dec-10 18:26N 37°33' E 025°49'8 9.4
2014-Dec-10 17:34N 37°26' E 025°53'9 9.1
2014-Dec-10 16:34N 37°18' E 025°60'9 8.9
2014-Dec-10 15:33N 37°11' E 026°06'9 9.4
2014-Dec-10 14:33N 37°02' E 026°10'9 9.4
2014-Dec-10 13:34N 36°54' E 026°17'9 8.8
2014-Dec-10 12:34N 36°47' E 026°24'10 9.6
2014-Dec-10 11:33N 36°40' E 026°31'1413.5
2014-Dec-10 10:29N 36°29' E 026°43'1613.1
2014-Dec-10 09:15N 36°17' E 026°57'  

Dump ship's entire track history